Time;durP1;ratioP1;P1;durP2;ratioP2;P2;SDS_P1;SDS_P2;PMS_P1;PMS_P2;Temp;Humidity;BMP_temperature;BMP_pressure;BME280_temperature;BME280_humidity;BME280_pressure;Samples;Min_cycle;Max_cycle;Signal;HPM_P1;HPM_P2
2023/03/08 00:02:24;;;;;;;12.15;5.03;;;0.50;99.90;;;;;;5038709;28;25093;-74
2023/03/08 00:04:54;;;;;;;11.73;5.60;;;0.40;99.90;;;;;;5038379;28;25063;-74
2023/03/08 00:07:23;;;;;;;10.23;4.78;;;0.50;99.90;;;;;;5038991;28;25115;-74
2023/03/08 00:09:50;;;;;;;9.32;4.38;;;0.40;99.90;;;;;;5038294;28;25064;-74
2023/03/08 00:12:18;;;;;;;10.23;5.35;;;0.50;99.90;;;;;;5038568;28;25086;-74
2023/03/08 00:14:46;;;;;;;12.95;5.43;;;0.40;99.90;;;;;;5021227;28;25051;-74
2023/03/08 00:17:13;;;;;;;10.10;5.28;;;0.50;99.90;;;;;;5038529;28;25081;-74
2023/03/08 00:19:41;;;;;;;9.77;4.75;;;0.40;99.90;;;;;;5038089;28;25059;-74
2023/03/08 00:22:08;;;;;;;8.88;5.22;;;0.50;99.90;;;;;;5038650;28;25082;-74
2023/03/08 00:24:36;;;;;;;23.75;5.10;;;0.40;99.90;;;;;;5038021;28;25080;-74
2023/03/08 00:27:04;;;;;;;11.57;5.13;;;0.40;99.90;;;;;;5038238;28;25062;-74
2023/03/08 00:29:32;;;;;;;13.23;5.53;;;0.40;99.90;;;;;;5038248;28;25110;-74
2023/03/08 00:31:59;;;;;;;10.23;5.45;;;0.40;99.90;;;;;;5038171;28;25079;-74
2023/03/08 00:34:27;;;;;;;11.25;5.35;;;0.50;99.90;;;;;;5037833;28;25048;-74
2023/03/08 00:36:55;;;;;;;10.23;5.28;;;0.40;99.90;;;;;;5038197;28;25069;-74
2023/03/08 00:39:22;;;;;;;10.90;5.82;;;0.40;99.90;;;;;;5019765;28;25094;-74
2023/03/08 00:41:50;;;;;;;8.82;4.95;;;0.40;99.90;;;;;;5038007;28;25126;-74
2023/03/08 00:44:17;;;;;;;9.52;4.85;;;0.40;99.90;;;;;;5045749;28;25085;-74
2023/03/08 00:46:44;;;;;;;11.88;5.88;;;0.40;99.90;;;;;;5058200;28;25063;-74
2023/03/08 00:49:13;;;;;;;10.77;5.43;;;0.40;99.90;;;;;;5057485;28;25119;-74
2023/03/08 00:51:40;;;;;;;13.95;5.50;;;0.40;99.90;;;;;;5057490;28;25097;-74
2023/03/08 00:54:07;;;;;;;11.43;5.68;;;0.40;99.90;;;;;;5057458;28;25061;-74
2023/03/08 00:56:35;;;;;;;11.73;5.93;;;0.40;99.90;;;;;;5057541;28;25075;-74
2023/03/08 00:59:02;;;;;;;12.57;6.50;;;0.40;99.90;;;;;;5057893;28;25128;-74
2023/03/08 01:01:29;;;;;;;12.73;6.15;;;0.40;99.90;;;;;;5057820;28;25088;-74
2023/03/08 01:03:56;;;;;;;11.68;6.20;;;0.40;99.90;;;;;;5057532;28;25099;-74
2023/03/08 01:06:24;;;;;;;14.40;6.47;;;0.40;99.90;;;;;;5057048;28;25051;-74
2023/03/08 01:08:51;;;;;;;13.45;6.60;;;0.40;99.90;;;;;;5057111;28;25064;-74
2023/03/08 01:11:24;;;;;;;16.10;7.95;;;0.40;99.90;;;;;;5057115;28;25072;-74
2023/03/08 01:13:52;;;;;;;17.58;7.95;;;0.40;99.90;;;;;;5057231;28;25133;-74
2023/03/08 01:16:26;;;;;;;16.02;8.20;;;0.40;99.90;;;;;;5057032;28;25089;-74
2023/03/08 01:18:54;;;;;;;19.67;8.30;;;0.40;99.90;;;;;;5056912;28;25063;-74
2023/03/08 01:21:22;;;;;;;16.33;8.27;;;0.40;99.90;;;;;;5057588;28;25115;-74
2023/03/08 01:23:50;;;;;;;17.35;8.48;;;0.40;99.90;;;;;;5056815;28;25068;-74
2023/03/08 01:26:19;;;;;;;11.60;5.43;;;0.40;99.90;;;;;;5056764;28;25098;-74
2023/03/08 01:28:47;;;;;;;16.92;8.85;;;0.40;99.90;;;;;;5056767;28;25067;-74
2023/03/08 01:31:19;;;;;;;12.98;6.95;;;0.50;99.90;;;;;;5057179;28;25117;-74
2023/03/08 01:33:47;;;;;;;15.70;7.30;;;0.40;99.90;;;;;;5056657;28;25070;-74
2023/03/08 01:36:17;;;;;;;17.10;7.47;;;0.40;99.90;;;;;;5057223;28;25053;-75
2023/03/08 01:38:45;;;;;;;13.15;6.78;;;0.40;99.90;;;;;;5056624;28;25067;-74
2023/03/08 01:41:25;;;;;;;15.73;7.30;;;0.40;99.90;;;;;;5056987;28;25053;-74
2023/03/08 01:43:52;;;;;;;21.63;6.65;;;0.40;99.90;;;;;;5045202;28;25084;-74
2023/03/08 01:46:36;;;;;;;12.77;6.55;;;0.40;99.90;;;;;;5036510;28;25148;-74
2023/03/08 01:49:20;;;;;;;17.85;7.50;;;0.40;99.90;;;;;;5036758;28;25051;-74
2023/03/08 01:52:05;;;;;;;13.07;6.07;;;0.30;99.90;;;;;;5036220;28;25063;-74
2023/03/08 01:54:41;;;;;;;12.95;5.68;;;0.30;99.90;;;;;;5036345;28;25080;-74
2023/03/08 01:57:31;;;;;;;15.02;6.32;;;0.30;99.90;;;;;;5036733;28;25069;-74
2023/03/08 02:00:18;;;;;;;10.93;5.28;;;0.30;99.90;;;;;;5036671;28;25068;-74
2023/03/08 02:02:52;;;;;;;10.45;5.63;;;0.30;99.90;;;;;;5036613;28;25124;-74
2023/03/08 02:05:20;;;;;;;12.63;5.60;;;0.30;99.90;;;;;;5036364;28;25104;-74
2023/03/08 02:07:47;;;;;;;9.88;4.68;;;0.30;99.90;;;;;;5018678;28;25076;-74
2023/03/08 02:10:16;;;;;;;13.55;5.55;;;0.30;99.90;;;;;;5018698;28;25053;-75
2023/03/08 02:12:44;;;;;;;9.73;4.75;;;0.30;99.90;;;;;;5018710;28;25064;-74
2023/03/08 02:15:13;;;;;;;8.63;3.72;;;0.30;99.90;;;;;;5036189;28;25075;-75
2023/03/08 02:17:41;;;;;;;11.35;5.78;;;0.30;99.90;;;;;;5036759;28;25133;-75
2023/03/08 02:20:34;;;;;;;13.35;5.25;;;0.30;99.90;;;;;;5036725;28;25059;-75
2023/03/08 02:23:14;;;;;;;10.27;4.68;;;0.30;99.90;;;;;;5036436;28;25121;-75
2023/03/08 02:25:50;;;;;;;9.02;4.78;;;0.30;99.90;;;;;;5036141;28;25058;-75
2023/03/08 02:28:18;;;;;;;15.48;4.95;;;0.20;99.90;;;;;;5036102;28;25107;-75
2023/03/08 02:30:45;;;;;;;12.15;4.78;;;0.20;99.90;;;;;;5036287;28;25106;-75
2023/03/08 02:33:12;;;;;;;10.93;4.72;;;0.20;99.90;;;;;;5036020;28;25062;-75
2023/03/08 02:35:41;;;;;;;10.32;4.65;;;0.20;99.90;;;;;;5036097;28;25082;-75
2023/03/08 02:38:11;;;;;;;8.30;4.13;;;0.20;99.90;;;;;;5036566;28;25061;-74
2023/03/08 02:40:39;;;;;;;10.02;3.95;;;0.20;99.90;;;;;;5036182;28;25050;-74
2023/03/08 02:43:07;;;;;;;7.43;3.38;;;0.20;99.90;;;;;;5024659;28;25083;-74
2023/03/08 02:45:35;;;;;;;7.57;2.90;;;0.10;99.90;;;;;;5055900;28;25056;-74
2023/03/08 02:48:04;;;;;;;7.78;3.05;;;0.10;99.90;;;;;;5055780;28;25102;-74
2023/03/08 02:50:31;;;;;;;6.40;3.13;;;0.10;99.90;;;;;;5056049;28;25053;-75
2023/03/08 02:52:59;;;;;;;4.50;2.22;;;0.00;99.90;;;;;;5056145;28;25105;-74
2023/03/08 02:55:26;;;;;;;7.85;2.95;;;0.10;99.90;;;;;;5055853;28;25080;-75
2023/03/08 02:57:54;;;;;;;7.03;3.20;;;0.10;99.90;;;;;;5055787;28;25077;-75
2023/03/08 03:00:21;;;;;;;8.05;3.13;;;0.10;99.90;;;;;;5055979;28;25102;-75
2023/03/08 03:02:48;;;;;;;6.00;3.05;;;0.10;99.90;;;;;;5056254;28;25062;-75
2023/03/08 03:05:15;;;;;;;9.20;3.17;;;0.10;99.90;;;;;;5059557;28;25129;-74
2023/03/08 03:07:43;;;;;;;5.97;3.20;;;0.10;99.90;;;;;;5059382;28;25083;-75
2023/03/08 03:10:12;;;;;;;6.47;3.40;;;0.10;99.90;;;;;;5058423;28;25073;-74
2023/03/08 03:12:40;;;;;;;7.07;3.53;;;0.10;99.90;;;;;;5059938;28;25133;-75
2023/03/08 03:15:09;;;;;;;7.63;3.38;;;0.20;99.90;;;;;;5059912;28;25078;-75
2023/03/08 03:17:36;;;;;;;5.65;2.97;;;0.10;99.90;;;;;;5058188;28;25079;-75
2023/03/08 03:20:08;;;;;;;7.97;2.72;;;0.10;99.90;;;;;;5059260;28;25060;-75
2023/03/08 03:22:36;;;;;;;6.88;3.60;;;0.10;99.90;;;;;;5059554;28;25106;-74
2023/03/08 03:25:04;;;;;;;5.13;2.88;;;0.10;99.90;;;;;;5058010;28;25068;-74
2023/03/08 03:27:31;;;;;;;5.68;2.85;;;0.10;99.90;;;;;;5058970;28;25072;-75
2023/03/08 03:29:58;;;;;;;7.63;3.95;;;0.00;99.90;;;;;;5059045;28;25147;-75
2023/03/08 03:32:26;;;;;;;6.97;3.70;;;0.00;99.90;;;;;;5057890;28;25061;-75
2023/03/08 03:34:53;;;;;;;6.80;2.95;;;-0.10;99.90;;;;;;5057825;28;25076;-75
2023/03/08 03:37:20;;;;;;;9.73;3.65;;;-0.20;99.90;;;;;;5059417;28;25087;-75
2023/03/08 03:39:47;;;;;;;5.60;2.85;;;-0.20;99.90;;;;;;5057754;28;25095;-75
2023/03/08 03:42:15;;;;;;;6.65;3.67;;;-0.20;99.90;;;;;;5058767;28;25121;-75
2023/03/08 03:44:42;;;;;;;8.18;3.60;;;-0.20;99.90;;;;;;5041015;28;25113;-75
2023/03/08 03:47:10;;;;;;;8.23;3.72;;;-0.20;99.90;;;;;;5039362;28;25150;-75
2023/03/08 03:49:37;;;;;;;6.75;3.70;;;-0.30;99.90;;;;;;5039233;28;25105;-75
2023/03/08 03:52:04;;;;;;;8.55;3.83;;;-0.30;99.90;;;;;;5021084;28;25087;-74
2023/03/08 03:54:32;;;;;;;8.30;3.78;;;-0.30;99.90;;;;;;5038610;28;25064;-74
2023/03/08 03:56:59;;;;;;;6.80;4.05;;;-0.30;99.90;;;;;;5039263;28;25084;-75
2023/03/08 03:59:26;;;;;;;9.07;3.50;;;-0.30;99.90;;;;;;5038541;28;25069;-74
2023/03/08 04:01:54;;;;;;;6.80;3.85;;;-0.40;99.90;;;;;;5038758;28;25051;-74
2023/03/08 04:04:21;;;;;;;7.50;4.15;;;-0.40;99.90;;;;;;5038973;28;25072;-89
2023/03/08 04:06:48;;;;;;;7.85;3.75;;;-0.40;99.90;;;;;;5038497;28;25046;-75
2023/03/08 04:09:18;;;;;;;8.40;4.13;;;-0.40;99.90;;;;;;5038285;28;25055;-74
2023/03/08 04:11:45;;;;;;;9.52;3.95;;;-0.50;99.90;;;;;;5038572;28;25097;-74
2023/03/08 04:14:12;;;;;;;6.68;3.70;;;-0.50;99.90;;;;;;5037846;28;25052;-74
2023/03/08 04:16:39;;;;;;;9.77;3.88;;;-0.50;99.90;;;;;;5038374;28;25054;-74
2023/03/08 04:19:11;;;;;;;9.93;4.57;;;-0.60;99.90;;;;;;5020551;28;25150;-75
2023/03/08 04:21:39;;;;;;;7.88;3.92;;;-0.50;99.90;;;;;;5038130;28;25146;-74
2023/03/08 04:24:07;;;;;;;9.35;3.53;;;-0.60;99.90;;;;;;5036937;28;25096;-74
2023/03/08 04:26:34;;;;;;;9.32;4.20;;;-0.60;99.90;;;;;;5038094;28;25085;-74
2023/03/08 04:29:04;;;;;;;8.27;4.38;;;-0.60;99.90;;;;;;5020389;28;25090;-74
2023/03/08 04:31:34;;;;;;;7.82;3.80;;;-0.60;99.90;;;;;;5038216;28;25079;-74
2023/03/08 04:34:02;;;;;;;9.07;4.10;;;-0.70;99.90;;;;;;5037835;28;25077;-74
2023/03/08 04:36:30;;;;;;;8.38;4.40;;;-0.70;99.90;;;;;;5020448;28;25063;-74
2023/03/08 04:38:58;;;;;;;14.35;5.10;;;-0.80;99.90;;;;;;5037778;28;25073;-74
2023/03/08 04:41:25;;;;;;;8.95;4.47;;;-0.80;99.90;;;;;;5037767;28;25073;-74
2023/03/08 04:43:55;;;;;;;8.50;5.10;;;-0.80;99.90;;;;;;5037589;28;25068;-74
2023/03/08 04:46:24;;;;;;;14.48;5.65;;;-0.80;99.90;;;;;;5019939;28;25059;-74
2023/03/08 04:48:54;;;;;;;11.52;5.50;;;-0.70;99.90;;;;;;5037594;28;25063;-74
2023/03/08 04:51:23;;;;;;;14.05;5.45;;;-0.70;99.90;;;;;;5038083;28;25118;-74
2023/03/08 04:53:52;;;;;;;10.68;5.88;;;-0.70;99.90;;;;;;5019898;28;25059;-75
2023/03/08 04:56:20;;;;;;;10.90;5.45;;;-0.60;99.90;;;;;;5037961;28;25048;-74
2023/03/08 04:58:47;;;;;;;12.07;5.78;;;-0.60;99.90;;;;;;5037949;28;25065;-74
2023/03/08 05:01:25;;;;;;;13.68;6.20;;;-0.50;99.90;;;;;;5037528;28;25091;-74
2023/03/08 05:03:53;;;;;;;13.77;5.85;;;-0.50;99.90;;;;;;5037269;28;25067;-74
2023/03/08 05:06:23;;;;;;;14.93;6.70;;;-0.50;99.90;;;;;;5037200;28;25116;-74
2023/03/08 05:08:50;;;;;;;13.07;6.22;;;-0.40;99.90;;;;;;5037166;28;25052;-74
2023/03/08 05:11:24;;;;;;;16.92;7.72;;;-0.40;99.90;;;;;;5037332;28;25060;-74
2023/03/08 05:13:54;;;;;;;15.48;6.47;;;-0.40;99.90;;;;;;5037110;28;25055;-74
2023/03/08 05:16:21;;;;;;;14.32;7.38;;;-0.30;99.90;;;;;;5019520;28;25058;-74
2023/03/08 05:18:49;;;;;;;16.55;7.25;;;-0.30;99.90;;;;;;5037021;28;25083;-74
2023/03/08 05:21:20;;;;;;;15.73;8.20;;;-0.30;99.90;;;;;;5037415;28;25108;-74
2023/03/08 05:23:47;;;;;;;20.52;8.82;;;-0.30;99.90;;;;;;5037177;28;25049;-74
2023/03/08 05:26:16;;;;;;;18.38;8.73;;;-0.30;99.90;;;;;;5019290;28;25060;-74
2023/03/08 05:28:44;;;;;;;21.63;8.50;;;-0.30;99.90;;;;;;5036832;28;25084;-74
2023/03/08 05:31:17;;;;;;;26.15;8.80;;;-0.30;99.90;;;;;;5036970;28;25136;-74
2023/03/08 05:33:49;;;;;;;21.63;8.95;;;-0.30;99.90;;;;;;5036719;28;25101;-74
2023/03/08 05:36:17;;;;;;;26.80;10.52;;;-0.20;99.90;;;;;;5019216;28;25098;-74
2023/03/08 05:38:45;;;;;;;20.58;8.63;;;-0.20;99.90;;;;;;5019400;28;25102;-74
2023/03/08 05:41:14;;;;;;;17.92;8.82;;;-0.20;99.90;;;;;;5036788;28;25072;-74
2023/03/08 05:43:42;;;;;;;22.30;9.23;;;-0.20;99.90;;;;;;5034020;28;25069;-74
2023/03/08 05:46:15;;;;;;;22.58;9.45;;;-0.10;99.90;;;;;;5055417;28;25068;-74
2023/03/08 05:48:50;;;;;;;18.75;9.10;;;-0.10;99.90;;;;;;5056476;28;25052;-74
2023/03/08 05:51:18;;;;;;;20.02;9.02;;;-0.10;99.90;;;;;;5056596;28;25069;-74
2023/03/08 05:53:46;;;;;;;23.60;9.35;;;-0.10;99.90;;;;;;5055293;28;25116;-75
2023/03/08 05:56:20;;;;;;;17.52;9.07;;;-0.10;99.90;;;;;;5056949;28;25101;-74
2023/03/08 05:58:48;;;;;;;17.48;8.95;;;-0.10;99.90;;;;;;5056343;28;25062;-74
2023/03/08 06:01:23;;;;;;;21.38;10.95;;;-0.10;99.90;;;;;;5056293;28;25109;-75
2023/03/08 06:03:53;;;;;;;18.92;8.68;;;-0.10;99.90;;;;;;5055192;28;25068;-75
2023/03/08 06:06:21;;;;;;;17.77;8.98;;;-0.10;99.90;;;;;;5056720;28;25056;-75
2023/03/08 06:08:49;;;;;;;20.65;9.15;;;-0.10;99.90;;;;;;5056248;28;25075;-74
2023/03/08 06:11:18;;;;;;;20.15;9.35;;;-0.10;99.90;;;;;;5056190;28;25145;-75
2023/03/08 06:13:45;;;;;;;18.35;8.27;;;-0.10;99.90;;;;;;5056184;28;25058;-75
2023/03/08 06:16:12;;;;;;;16.42;8.18;;;-0.10;99.90;;;;;;5055452;28;25152;-75
2023/03/08 06:18:41;;;;;;;18.40;9.25;;;-0.10;99.90;;;;;;5056830;28;25124;-75
2023/03/08 06:21:16;;;;;;;19.80;9.38;;;-0.10;99.90;;;;;;5056563;28;25060;-75
2023/03/08 06:23:44;;;;;;;21.67;10.13;;;-0.10;99.90;;;;;;5056089;28;25068;-75
2023/03/08 06:26:11;;;;;;;22.25;10.43;;;-0.10;99.90;;;;;;5056196;28;25067;-75
2023/03/08 06:28:39;;;;;;;17.45;8.98;;;-0.10;99.90;;;;;;5056568;28;25069;-75
2023/03/08 06:31:07;;;;;;;19.08;9.77;;;-0.10;99.90;;;;;;5056102;28;25093;-75
2023/03/08 06:33:34;;;;;;;21.10;9.25;;;0.00;99.90;;;;;;5056054;28;25104;-75
2023/03/08 06:36:13;;;;;;;19.83;9.45;;;0.00;99.90;;;;;;5055091;28;25072;-75
2023/03/08 06:38:41;;;;;;;21.95;9.25;;;0.00;99.90;;;;;;5059410;28;25069;-75
2023/03/08 06:41:11;;;;;;;19.80;9.93;;;0.00;99.90;;;;;;5058927;28;25113;-77
2023/03/08 06:43:38;;;;;;;16.80;9.10;;;0.00;99.90;;;;;;5042092;28;25077;-75
2023/03/08 06:46:12;;;;;;;19.55;9.23;;;0.00;99.90;;;;;;5058798;28;25084;-74
2023/03/08 06:48:40;;;;;;;19.48;9.50;;;0.10;99.90;;;;;;5059847;28;25108;-74
2023/03/08 06:51:08;;;;;;;20.58;9.98;;;0.10;99.90;;;;;;5060592;28;25067;-74
2023/03/08 06:53:37;;;;;;;20.80;10.48;;;0.20;99.90;;;;;;5059710;28;25127;-74
2023/03/08 06:56:06;;;;;;;37.30;15.15;;;0.20;99.90;;;;;;5059827;28;25077;-74
2023/03/08 06:58:35;;;;;;;48.80;18.77;;;0.30;99.90;;;;;;5058523;28;25090;-74
2023/03/08 07:01:04;;;;;;;33.78;13.85;;;0.30;99.90;;;;;;5060142;28;25091;-77
2023/03/08 07:03:32;;;;;;;45.47;16.40;;;0.30;99.90;;;;;;5059838;28;25124;-77
2023/03/08 07:06:02;;;;;;;59.28;26.00;;;0.40;99.90;;;;;;5059971;28;25072;-79
2023/03/08 07:08:29;;;;;;;42.22;18.40;;;0.40;99.90;;;;;;5063104;28;25061;-86
2023/03/08 07:10:58;;;;;;;31.40;13.95;;;0.40;99.90;;;;;;5058504;28;25108;-89
2023/03/08 07:13:25;;;;;;;29.90;14.32;;;0.40;99.90;;;;;;5058283;28;25065;-79
2023/03/08 07:15:52;;;;;;;24.67;11.98;;;0.40;99.90;;;;;;5060236;28;25167;-81
2023/03/08 07:18:20;;;;;;;27.92;12.15;;;0.50;99.90;;;;;;5059363;28;25069;-79
2023/03/08 07:20:57;;;;;;;28.58;13.05;;;0.50;99.90;;;;;;5059308;28;25128;-81
2023/03/08 07:23:24;;;;;;;27.58;12.90;;;0.60;99.90;;;;;;5059271;28;25054;-83
2023/03/08 07:25:52;;;;;;;21.85;11.13;;;0.60;99.90;;;;;;5058230;28;25099;-83
2023/03/08 07:28:20;;;;;;;25.40;11.40;;;0.70;99.90;;;;;;5058222;28;25051;-82
2023/03/08 07:30:53;;;;;;;23.08;10.52;;;0.70;99.90;;;;;;5057422;28;25066;-77
2023/03/08 07:33:21;;;;;;;23.55;11.38;;;0.80;99.90;;;;;;5059571;28;25079;-78
2023/03/08 07:35:48;;;;;;;25.70;11.65;;;0.80;99.90;;;;;;5057907;28;25126;-84
2023/03/08 07:38:16;;;;;;;26.05;12.45;;;0.90;99.90;;;;;;5057816;28;25106;-73
2023/03/08 07:40:44;;;;;;;22.58;10.52;;;1.00;99.90;;;;;;5059413;28;25134;-75
2023/03/08 07:43:12;;;;;;;26.02;13.20;;;1.00;99.90;;;;;;5056033;28;25091;-72
2023/03/08 07:45:39;;;;;;;22.63;11.52;;;1.10;99.90;;;;;;5038845;28;25056;-73
2023/03/08 07:48:06;;;;;;;23.30;11.57;;;1.10;99.90;;;;;;5020826;28;25120;-73
2023/03/08 07:50:34;;;;;;;24.58;11.52;;;1.20;99.90;;;;;;5037973;28;25075;-73
2023/03/08 07:53:03;;;;;;;24.20;13.13;;;1.20;99.90;;;;;;5039206;28;25101;-75
2023/03/08 07:55:30;;;;;;;25.15;12.02;;;1.30;99.90;;;;;;5038973;28;25072;-74
2023/03/08 07:57:58;;;;;;;24.67;12.40;;;1.30;99.90;;;;;;5038589;28;25058;-75
2023/03/08 08:00:26;;;;;;;23.95;11.27;;;1.40;99.90;;;;;;5021073;28;25125;-74
2023/03/08 08:02:54;;;;;;;23.95;11.52;;;1.50;99.90;;;;;;5038501;28;25122;-74
2023/03/08 08:05:21;;;;;;;25.63;12.07;;;1.50;99.90;;;;;;5039022;28;25079;-74
2023/03/08 08:07:49;;;;;;;25.42;12.32;;;1.60;99.90;;;;;;5038313;28;25075;-75
2023/03/08 08:10:16;;;;;;;25.95;11.70;;;1.70;99.90;;;;;;5038620;28;25050;-75
2023/03/08 08:12:44;;;;;;;24.45;11.98;;;1.70;99.90;;;;;;5038298;28;25081;-74
2023/03/08 08:15:11;;;;;;;24.50;11.30;;;1.70;99.90;;;;;;5020820;28;25068;-73
2023/03/08 08:17:38;;;;;;;26.20;11.80;;;1.70;99.90;;;;;;5020602;28;25106;-73
2023/03/08 08:20:09;;;;;;;25.88;11.80;;;1.70;99.90;;;;;;5038193;28;25095;-73
2023/03/08 08:22:37;;;;;;;24.73;13.13;;;1.70;99.90;;;;;;5038139;28;25062;-73
2023/03/08 08:25:06;;;;;;;26.48;12.20;;;1.70;99.90;;;;;;5020647;28;25062;-73
2023/03/08 08:27:35;;;;;;;24.77;11.93;;;1.80;99.90;;;;;;5020393;28;25095;-76
2023/03/08 08:30:04;;;;;;;28.83;12.10;;;1.80;99.90;;;;;;5038516;28;25103;-74
2023/03/08 08:32:34;;;;;;;25.52;12.88;;;1.80;99.90;;;;;;5020419;28;25128;-74
2023/03/08 08:35:01;;;;;;;26.92;13.68;;;1.90;99.90;;;;;;5038155;28;25067;-74
2023/03/08 08:37:30;;;;;;;28.40;12.02;;;1.90;99.90;;;;;;5038199;28;25071;-74
2023/03/08 08:39:59;;;;;;;26.08;12.05;;;2.00;99.90;;;;;;5037797;28;25052;-74
2023/03/08 08:42:26;;;;;;;23.05;11.82;;;2.00;99.90;;;;;;5037790;28;25072;-74
2023/03/08 08:44:54;;;;;;;21.92;11.43;;;2.00;99.90;;;;;;5037668;28;25070;-74
2023/03/08 08:47:22;;;;;;;24.88;11.57;;;2.10;99.90;;;;;;5019936;28;25068;-74
2023/03/08 08:49:49;;;;;;;22.23;11.80;;;2.10;99.90;;;;;;5019998;28;25094;-75
2023/03/08 08:52:16;;;;;;;24.67;12.75;;;2.20;99.90;;;;;;5037535;28;25070;-76
2023/03/08 08:54:43;;;;;;;28.55;11.93;;;2.20;99.90;;;;;;5037707;28;25052;-75
2023/03/08 08:57:11;;;;;;;25.77;13.30;;;2.30;99.90;;;;;;5037598;28;25056;-75
2023/03/08 08:59:38;;;;;;;22.98;12.20;;;2.40;99.90;;;;;;5037511;28;25109;-75
2023/03/08 09:02:06;;;;;;;22.65;11.40;;;2.40;99.90;;;;;;5037563;28;25144;-74
2023/03/08 09:04:34;;;;;;;26.00;11.00;;;2.50;99.90;;;;;;5037270;28;25072;-74
2023/03/08 09:07:02;;;;;;;25.85;12.07;;;2.50;99.90;;;;;;5037171;28;25075;-72
2023/03/08 09:09:29;;;;;;;24.33;12.57;;;2.60;99.90;;;;;;5037200;28;25095;-74
2023/03/08 09:11:57;;;;;;;24.27;12.40;;;2.60;99.90;;;;;;5037177;28;25076;-74
2023/03/08 09:14:24;;;;;;;22.27;12.25;;;2.60;99.90;;;;;;5037335;28;25057;-77
2023/03/08 09:16:51;;;;;;;25.42;12.13;;;2.70;99.90;;;;;;5037368;28;25058;-74
2023/03/08 09:19:18;;;;;;;23.92;12.50;;;2.70;99.90;;;;;;5037568;28;25071;-73
2023/03/08 09:21:46;;;;;;;23.88;11.35;;;2.70;99.90;;;;;;5038238;28;25097;-74
2023/03/08 09:24:15;;;;;;;24.60;12.00;;;2.70;99.90;;;;;;5037190;28;25071;-75
2023/03/08 09:26:42;;;;;;;27.15;12.93;;;2.80;99.90;;;;;;5037083;28;25069;-74
2023/03/08 09:29:11;;;;;;;26.23;11.68;;;2.80;99.90;;;;;;5037400;28;25110;-73
2023/03/08 09:31:39;;;;;;;26.23;12.50;;;3.00;99.90;;;;;;5037546;28;25081;-75
2023/03/08 09:34:09;;;;;;;25.17;12.18;;;3.00;99.90;;;;;;5020109;28;25092;-74
2023/03/08 09:36:41;;;;;;;26.50;11.55;;;3.10;99.90;;;;;;5019264;28;25092;-74
2023/03/08 09:39:10;;;;;;;28.42;13.38;;;3.20;99.90;;;;;;5036977;28;25116;-74
2023/03/08 09:42:05;;;;;;;34.30;15.93;;;3.20;99.90;;;;;;5036843;28;25074;-74
2023/03/08 09:44:48;;;;;;;22.25;11.05;;;3.30;99.90;;;;;;5036552;28;25117;-73
2023/03/08 09:47:45;;;;;;;38.30;16.10;;;3.40;99.90;;;;;;5036824;28;25110;-74
2023/03/08 09:50:12;;;;;;;18.13;9.20;;;3.40;99.90;;;;;;5036737;28;25056;-73
2023/03/08 09:52:49;;;;;;;21.88;9.90;;;3.60;99.90;;;;;;5036811;28;25129;-74
2023/03/08 09:55:29;;;;;;;23.42;11.25;;;3.70;99.90;;;;;;5036787;28;25098;-75
2023/03/08 09:58:18;;;;;;;43.53;18.67;;;3.70;99.90;;;;;;5036462;28;25139;-74
2023/03/08 10:00:46;;;;;;;31.92;14.63;;;3.80;99.90;;;;;;5018806;28;25080;-76
2023/03/08 10:03:26;;;;;;;14.55;7.65;;;3.80;99.90;;;;;;5018847;28;25152;-75
2023/03/08 10:06:07;;;;;;;16.05;8.25;;;3.80;99.90;;;;;;5036641;28;25096;-74
2023/03/08 10:08:56;;;;;;;15.52;6.40;;;3.90;99.90;;;;;;5018683;28;25073;-74
2023/03/08 10:11:44;;;;;;;12.43;6.90;;;4.00;99.90;;;;;;5036541;28;25087;-75
2023/03/08 10:14:36;;;;;;;11.55;6.57;;;4.00;99.90;;;;;;5018698;28;25097;-74
2023/03/08 10:17:17;;;;;;;11.68;6.15;;;4.00;99.90;;;;;;5036709;28;25071;-73
2023/03/08 10:19:52;;;;;;;12.57;6.68;;;3.90;99.90;;;;;;5036219;28;25099;-74
2023/03/08 10:22:29;;;;;;;10.90;6.28;;;3.70;99.90;;;;;;5036793;28;25087;-75
2023/03/08 10:25:25;;;;;;;10.77;6.18;;;3.60;99.90;;;;;;5035090;28;25072;-74
2023/03/08 10:27:55;;;;;;;10.65;5.65;;;3.50;99.90;;;;;;5036353;28;25069;-73
2023/03/08 10:30:33;;;;;;;13.55;5.22;;;3.40;99.90;;;;;;5036123;28;25056;-75
2023/03/08 10:33:05;;;;;;;11.65;5.53;;;3.30;99.90;;;;;;5036234;28;25068;-74
2023/03/08 10:35:55;;;;;;;11.88;6.20;;;3.30;99.90;;;;;;5036289;28;25060;-75
2023/03/08 10:38:23;;;;;;;8.43;4.60;;;3.20;99.90;;;;;;5018509;28;25074;-74
2023/03/08 10:41:00;;;;;;;10.15;5.20;;;3.20;99.90;;;;;;5036328;28;25061;-75
2023/03/08 10:43:31;;;;;;;10.10;5.65;;;3.30;99.90;;;;;;5036057;28;25078;-73
2023/03/08 10:46:11;;;;;;;8.70;4.22;;;3.30;99.90;;;;;;5036096;28;25062;-74
2023/03/08 10:48:39;;;;;;;6.80;4.03;;;3.40;99.90;;;;;;5036200;28;25052;-72
2023/03/08 10:51:24;;;;;;;6.40;3.33;;;3.50;99.90;;;;;;5018428;28;25118;-73
2023/03/08 10:54:01;;;;;;;6.93;3.08;;;3.50;99.90;;;;;;5036147;28;25139;-73
2023/03/08 10:56:43;;;;;;;6.32;2.97;;;3.60;99.90;;;;;;5036045;28;25063;-74
2023/03/08 10:59:22;;;;;;;4.97;2.78;;;3.50;99.90;;;;;;5035853;28;25100;-73
2023/03/08 11:01:52;;;;;;;5.47;3.00;;;3.50;99.90;;;;;;5036118;28;25065;-74
2023/03/08 11:04:22;;;;;;;4.70;2.33;;;3.60;99.90;;;;;;5035654;28;25124;-74
2023/03/08 11:06:50;;;;;;;5.60;3.25;;;3.70;99.90;;;;;;5035890;28;25113;-74
2023/03/08 11:09:29;;;;;;;4.95;2.90;;;3.80;99.90;;;;;;5036305;28;25117;-74
2023/03/08 11:11:58;;;;;;;4.80;2.42;;;4.00;99.90;;;;;;5035795;28;25120;-74
2023/03/08 11:14:28;;;;;;;5.82;2.67;;;4.20;99.90;;;;;;5035983;28;25115;-74
2023/03/08 11:17:10;;;;;;;4.95;2.38;;;4.30;99.90;;;;;;5035690;28;25076;-75
2023/03/08 11:19:59;;;;;;;3.33;1.92;;;4.60;99.90;;;;;;5035660;28;25043;-73
2023/03/08 11:22:58;;;;;;;4.82;2.47;;;4.80;99.90;;;;;;5035577;28;25064;-74
2023/03/08 11:25:44;;;;;;;3.45;1.90;;;4.80;99.90;;;;;;5039141;28;25081;-73
2023/03/08 11:28:48;;;;;;;3.53;1.80;;;4.80;99.90;;;;;;5021636;28;25100;-73
2023/03/08 11:31:21;;;;;;;4.47;1.70;;;4.70;99.90;;;;;;5039798;28;25056;-75
2023/03/08 11:34:00;;;;;;;2.92;1.55;;;4.60;99.90;;;;;;5039343;28;25075;-75
2023/03/08 11:37:07;;;;;;;4.40;2.30;;;4.50;99.90;;;;;;5021527;28;25098;-75
2023/03/08 11:39:50;;;;;;;3.28;1.63;;;4.60;99.90;;;;;;5039191;28;25057;-74
2023/03/08 11:42:25;;;;;;;2.58;1.20;;;4.70;99.90;;;;;;5039045;28;25105;-72
2023/03/08 11:45:27;;;;;;;3.08;1.38;;;4.80;99.90;;;;;;5038734;28;25136;-73
2023/03/08 11:48:36;;;;;;;2.25;1.25;;;4.90;99.90;;;;;;5021082;28;25058;-72
2023/03/08 11:51:10;;;;;;;3.78;1.90;;;5.00;99.90;;;;;;5038349;28;25069;-73
2023/03/08 11:54:14;;;;;;;3.50;1.70;;;5.00;99.90;;;;;;5038384;28;25068;-73
2023/03/08 11:57:00;;;;;;;3.85;1.50;;;5.00;99.90;;;;;;4997465;28;25126;-73
2023/03/08 11:59:36;;;;;;;3.17;1.95;;;5.10;99.90;;;;;;5035719;28;25065;-73
2023/03/08 12:02:09;;;;;;;3.45;2.00;;;5.10;99.90;;;;;;5038925;28;25084;-73
2023/03/08 12:04:45;;;;;;;4.50;2.70;;;5.10;99.90;;;;;;5038738;28;25112;-73
2023/03/08 12:07:22;;;;;;;5.60;3.15;;;5.20;99.90;;;;;;5038658;28;25093;-74
2023/03/08 12:10:14;;;;;;;6.85;2.38;;;5.30;99.90;;;;;;5038693;28;25056;-75
2023/03/08 12:12:52;;;;;;;3.90;1.70;;;5.40;99.90;;;;;;5038626;28;25074;-78
2023/03/08 12:15:39;;;;;;;3.40;1.60;;;5.50;99.90;;;;;;5038870;28;25076;-73
2023/03/08 12:18:21;;;;;;;3.67;1.90;;;5.50;99.90;;;;;;5038483;28;25125;-73
2023/03/08 12:20:49;;;;;;;3.90;2.05;;;5.40;99.90;;;;;;5038327;28;25110;-73
2023/03/08 12:23:38;;;;;;;4.85;2.55;;;5.30;99.90;;;;;;5038671;28;25060;-73
2023/03/08 12:26:20;;;;;;;7.00;3.50;;;5.10;99.90;;;;;;5038150;28;25102;-72
2023/03/08 12:28:59;;;;;;;5.25;2.47;;;4.80;99.90;;;;;;5038574;28;25054;-74
2023/03/08 12:31:34;;;;;;;6.60;2.30;;;4.50;99.90;;;;;;5037594;28;25132;-74
2023/03/08 12:34:14;;;;;;;5.75;3.17;;;4.20;99.90;;;;;;5038481;28;25107;-74
2023/03/08 12:36:43;;;;;;;6.03;2.95;;;4.10;99.90;;;;;;5037249;28;25072;-73
2023/03/08 12:39:34;;;;;;;3.95;2.58;;;4.00;99.90;;;;;;5037783;28;25079;-73
2023/03/08 12:42:15;;;;;;;3.80;1.83;;;4.00;99.90;;;;;;5037688;28;25060;-73
2023/03/08 12:44:44;;;;;;;3.40;1.65;;;3.90;99.90;;;;;;5037577;28;25067;-72
2023/03/08 12:47:19;;;;;;;3.42;1.63;;;3.80;99.90;;;;;;5037880;28;25068;-72
2023/03/08 12:49:57;;;;;;;4.80;1.65;;;3.70;99.90;;;;;;5038406;28;25066;-72
2023/03/08 12:52:35;;;;;;;3.67;2.03;;;3.70;99.90;;;;;;5037565;28;25064;-72
2023/03/08 12:55:32;;;;;;;4.50;1.92;;;3.60;99.90;;;;;;5037430;28;25067;-72
2023/03/08 12:58:03;;;;;;;7.50;2.40;;;3.60;99.90;;;;;;5033420;28;25068;-72
2023/03/08 13:00:36;;;;;;;11.25;5.75;;;3.60;99.90;;;;;;5037584;28;25093;-72
2023/03/08 13:03:13;;;;;;;24.80;4.35;;;3.50;99.90;;;;;;5037331;28;25057;-72
2023/03/08 13:05:46;;;;;;;7.05;3.67;;;3.40;99.90;;;;;;5037898;28;25060;-72
2023/03/08 13:08:13;;;;;;;7.20;3.72;;;3.30;99.90;;;;;;5037212;28;25131;-72
2023/03/08 13:10:57;;;;;;;6.68;3.80;;;3.20;99.90;;;;;;5037977;28;25089;-72